Time;durP1;ratioP1;P1;durP2;ratioP2;P2;SDS_P1;SDS_P2;PMS_P1;PMS_P2;Temp;Humidity;BMP_temperature;BMP_pressure;BME280_temperature;BME280_humidity;BME280_pressure;Samples;Min_cycle;Max_cycle;Signal;HPM_P1;HPM_P2
2023/01/25 00:01:58;;;;;;;44.50;28.85;;;1.10;99.90;;;;;;5048783;28;20063;-64
2023/01/25 00:04:23;;;;;;;42.17;28.30;;;0.80;99.90;;;;;;5046485;28;20041;-64
2023/01/25 00:06:49;;;;;;;42.38;27.88;;;0.80;99.90;;;;;;5050056;28;20041;-63
2023/01/25 00:09:16;;;;;;;43.85;28.80;;;-0.20;99.90;;;;;;5047377;28;20045;-63
2023/01/25 00:11:43;;;;;;;40.42;26.83;;;2.00;99.90;;;;;;5048901;28;20056;-61
2023/01/25 00:14:09;;;;;;;43.20;28.48;;;0.90;99.90;;;;;;5046378;28;20473;-63
2023/01/25 00:16:36;;;;;;;39.22;25.90;;;0.90;99.90;;;;;;5049074;28;20053;-62
2023/01/25 00:19:02;;;;;;;38.10;27.10;;;0.80;99.90;;;;;;5049118;28;20041;-63
2023/01/25 00:21:28;;;;;;;38.85;26.27;;;0.90;99.90;;;;;;5048737;28;20068;-63
2023/01/25 00:23:54;;;;;;;39.42;24.15;;;0.90;99.90;;;;;;5048545;28;20048;-63
2023/01/25 00:26:20;;;;;;;38.35;26.30;;;0.90;99.90;;;;;;5046924;28;20037;-63
2023/01/25 00:28:53;;;;;;;43.97;27.05;;;0.90;99.90;;;;;;5049120;28;20060;-63
2023/01/25 00:31:34;;;;;;;41.05;27.92;;;0.90;99.90;;;;;;5046574;28;20644;-62
2023/01/25 00:34:00;;;;;;;41.08;27.10;;;-0.30;99.90;;;;;;5049068;28;20049;-62
2023/01/25 00:36:38;;;;;;;41.60;27.05;;;0.80;99.90;;;;;;5049579;28;20045;-63
2023/01/25 00:39:05;;;;;;;41.63;27.42;;;0.80;99.90;;;;;;5046074;28;20124;-62
2023/01/25 00:41:31;;;;;;;40.67;28.10;;;1.00;99.90;;;;;;5045303;28;20055;-64
2023/01/25 00:43:57;;;;;;;39.55;24.75;;;0.80;99.90;;;;;;5045750;28;20776;-65
2023/01/25 00:46:23;;;;;;;39.65;27.38;;;0.80;99.90;;;;;;5049132;28;20041;-63
2023/01/25 00:48:52;;;;;;;42.63;28.05;;;0.80;99.90;;;;;;5048952;28;20041;-62
2023/01/25 00:51:18;;;;;;;44.28;28.27;;;0.70;99.90;;;;;;5049164;28;20071;-63
2023/01/25 00:53:44;;;;;;;37.85;26.83;;;0.70;99.90;;;;;;5049537;28;20049;-62
2023/01/25 00:56:09;;;;;;;42.95;28.63;;;0.70;99.90;;;;;;5047444;28;20048;-62
2023/01/25 00:58:35;;;;;;;37.05;26.35;;;0.70;99.90;;;;;;5048982;28;20109;-63
2023/01/25 01:01:00;;;;;;;41.53;28.13;;;0.70;99.90;;;;;;5048417;28;20033;-63
2023/01/25 01:03:26;;;;;;;41.70;27.55;;;0.70;99.90;;;;;;5050245;28;20051;-62
2023/01/25 01:06:01;;;;;;;41.55;28.15;;;0.70;99.90;;;;;;5048171;28;20519;-64
2023/01/25 01:08:27;;;;;;;43.42;27.65;;;0.70;99.90;;;;;;5045687;28;20069;-65
2023/01/25 01:11:01;;;;;;;41.05;27.60;;;0.80;99.90;;;;;;5047719;28;20036;-62
2023/01/25 01:13:28;;;;;;;44.58;27.90;;;0.70;99.90;;;;;;5047437;28;20582;-63
2023/01/25 01:15:54;;;;;;;39.83;27.60;;;0.80;99.90;;;;;;5049040;28;20103;-62
2023/01/25 01:18:20;;;;;;;44.80;27.88;;;0.70;99.90;;;;;;5046446;28;20128;-62
2023/01/25 01:20:50;;;;;;;41.10;28.02;;;0.80;99.90;;;;;;5047949;28;20072;-62
2023/01/25 01:23:16;;;;;;;41.42;27.65;;;0.70;99.90;;;;;;5046329;28;20037;-62
2023/01/25 01:25:42;;;;;;;42.80;27.83;;;0.70;99.90;;;;;;5047603;28;20140;-62
2023/01/25 01:28:07;;;;;;;40.53;27.15;;;0.80;99.90;;;;;;5048427;28;20048;-63
2023/01/25 01:30:33;;;;;;;38.08;25.90;;;0.70;99.90;;;;;;5047301;28;20160;-63
2023/01/25 01:32:59;;;;;;;41.80;28.10;;;0.70;99.90;;;;;;5049145;28;20056;-63
2023/01/25 01:35:24;;;;;;;40.88;27.70;;;0.70;99.90;;;;;;5047804;28;20059;-62
2023/01/25 01:37:50;;;;;;;41.58;27.35;;;0.70;99.90;;;;;;5046554;28;20397;-63
2023/01/25 01:40:16;;;;;;;42.22;27.80;;;0.70;99.90;;;;;;5048250;28;20049;-63
2023/01/25 01:43:03;;;;;;;40.42;26.80;;;0.70;99.90;;;;;;5028796;28;20068;-63
2023/01/25 01:45:50;;;;;;;40.58;27.27;;;0.70;99.90;;;;;;5046890;28;20043;-62
2023/01/25 01:48:37;;;;;;;37.55;25.92;;;0.70;99.90;;;;;;5044299;28;20048;-61
2023/01/25 01:51:13;;;;;;;39.42;25.98;;;0.70;99.90;;;;;;5045339;28;20048;-63
2023/01/25 01:53:43;;;;;;;35.38;23.17;;;0.70;99.90;;;;;;5046867;28;20033;-63
2023/01/25 01:56:14;;;;;;;40.75;27.60;;;0.70;99.90;;;;;;5047377;28;20068;-63
2023/01/25 01:58:41;;;;;;;42.72;27.70;;;0.70;99.90;;;;;;5048014;28;20041;-63
2023/01/25 02:01:07;;;;;;;40.03;27.13;;;1.00;99.90;;;;;;5045425;28;20045;-61
2023/01/25 02:03:34;;;;;;;42.85;29.38;;;0.90;99.90;;;;;;5044812;28;20041;-62
2023/01/25 02:06:07;;;;;;;40.95;27.42;;;0.60;99.90;;;;;;5044813;28;20061;-62
2023/01/25 02:08:35;;;;;;;42.60;26.70;;;0.60;99.90;;;;;;5044881;28;20047;-63
2023/01/25 02:11:03;;;;;;;40.30;25.35;;;0.60;99.90;;;;;;5045732;28;20033;-62
2023/01/25 02:13:30;;;;;;;42.08;26.38;;;0.50;99.90;;;;;;5043888;28;20050;-61
2023/01/25 02:15:56;;;;;;;42.40;27.15;;;0.50;99.90;;;;;;5046287;28;20103;-62
2023/01/25 02:18:23;;;;;;;44.22;27.60;;;0.60;99.90;;;;;;5044691;28;20084;-61
2023/01/25 02:20:55;;;;;;;41.42;28.20;;;0.50;99.90;;;;;;5044135;28;20037;-62
2023/01/25 02:23:50;;;;;;;42.40;27.55;;;0.90;99.90;;;;;;5046689;28;20057;-63
2023/01/25 02:26:18;;;;;;;44.03;29.00;;;0.40;99.90;;;;;;5042980;28;20061;-62
2023/01/25 02:28:54;;;;;;;44.45;27.83;;;0.50;99.90;;;;;;5051092;28;20045;-63
2023/01/25 02:31:20;;;;;;;42.35;28.27;;;0.50;99.90;;;;;;5048785;28;20071;-62
2023/01/25 02:33:46;;;;;;;42.08;28.38;;;0.50;99.90;;;;;;5049108;28;20045;-62
2023/01/25 02:36:20;;;;;;;41.67;26.27;;;0.50;99.90;;;;;;5050359;28;20045;-62
2023/01/25 02:39:08;;;;;;;44.75;29.02;;;0.50;99.90;;;;;;5051521;28;20045;-63
2023/01/25 02:41:41;;;;;;;45.45;29.05;;;0.50;99.90;;;;;;5051248;28;20044;-65
2023/01/25 02:44:11;;;;;;;45.78;29.50;;;0.40;99.90;;;;;;5048404;28;20041;-63
2023/01/25 02:46:39;;;;;;;44.50;28.40;;;0.40;99.90;;;;;;5049490;28;20056;-62
2023/01/25 02:49:06;;;;;;;49.92;30.75;;;0.30;99.90;;;;;;5050570;28;20090;-64
2023/01/25 02:51:36;;;;;;;46.97;28.80;;;0.40;99.90;;;;;;5050715;28;20126;-62
2023/01/25 02:54:05;;;;;;;46.28;28.23;;;0.40;99.90;;;;;;5052407;28;20076;-63
2023/01/25 02:56:31;;;;;;;48.35;29.58;;;0.40;99.90;;;;;;5032566;28;20037;-62
2023/01/25 02:58:57;;;;;;;43.72;29.42;;;0.40;99.90;;;;;;5051345;28;20036;-63
2023/01/25 03:01:23;;;;;;;47.13;29.83;;;0.50;99.90;;;;;;5050134;28;20067;-62
2023/01/25 03:03:49;;;;;;;45.90;28.70;;;0.50;99.90;;;;;;5049665;28;20041;-63
2023/01/25 03:06:14;;;;;;;47.58;29.75;;;0.40;99.90;;;;;;5049184;28;20076;-62
2023/01/25 03:08:40;;;;;;;41.30;25.73;;;0.50;99.90;;;;;;5051372;28;20096;-63
2023/01/25 03:11:06;;;;;;;42.55;25.98;;;0.50;99.90;;;;;;5051118;28;20045;-63
2023/01/25 03:13:34;;;;;;;47.67;30.05;;;0.50;99.90;;;;;;5048612;28;20049;-63
2023/01/25 03:16:05;;;;;;;49.03;30.10;;;0.50;99.90;;;;;;5050390;28;20183;-62
2023/01/25 03:18:31;;;;;;;46.97;29.45;;;0.40;99.90;;;;;;5049086;28;20037;-62
2023/01/25 03:21:07;;;;;;;49.58;29.23;;;0.40;99.90;;;;;;5048948;28;20049;-63
2023/01/25 03:23:33;;;;;;;49.28;28.63;;;0.40;99.90;;;;;;5051117;28;20049;-62
2023/01/25 03:26:09;;;;;;;46.55;28.30;;;0.40;99.90;;;;;;5047286;28;20072;-62
2023/01/25 03:28:35;;;;;;;50.47;30.58;;;0.40;99.90;;;;;;5049596;28;20263;-63
2023/01/25 03:31:01;;;;;;;47.25;29.88;;;0.80;99.90;;;;;;5047917;28;20587;-62
2023/01/25 03:33:28;;;;;;;44.88;26.90;;;0.40;99.90;;;;;;5049059;28;20044;-63
2023/01/25 03:35:54;;;;;;;46.35;30.02;;;0.30;99.90;;;;;;5049419;28;20087;-63
2023/01/25 03:38:21;;;;;;;47.67;29.60;;;0.40;99.90;;;;;;5048636;28;20044;-63
2023/01/25 03:40:47;;;;;;;49.70;30.35;;;0.40;99.90;;;;;;5030366;28;20045;-62
2023/01/25 03:43:13;;;;;;;49.47;30.50;;;0.40;99.90;;;;;;5047492;28;20083;-63
2023/01/25 03:45:38;;;;;;;46.40;30.02;;;0.40;99.90;;;;;;5023261;28;20034;-63
2023/01/25 03:48:04;;;;;;;49.67;30.70;;;0.40;99.90;;;;;;5014476;28;20053;-63
2023/01/25 03:50:30;;;;;;;47.65;30.40;;;0.40;99.90;;;;;;5015463;28;20835;-63
2023/01/25 03:53:01;;;;;;;49.10;30.50;;;0.50;99.90;;;;;;5014074;28;20055;-63
2023/01/25 03:55:27;;;;;;;48.88;30.30;;;0.40;99.90;;;;;;5014163;28;20049;-63
2023/01/25 03:57:53;;;;;;;49.08;29.77;;;0.40;99.90;;;;;;5033359;28;20510;-63
2023/01/25 04:00:19;;;;;;;48.60;29.90;;;0.50;99.90;;;;;;5047728;28;20076;-63
2023/01/25 04:02:45;;;;;;;46.53;30.13;;;0.50;99.90;;;;;;5050463;28;20135;-63
2023/01/25 04:05:11;;;;;;;49.60;30.65;;;0.50;99.90;;;;;;5045478;28;20037;-63
2023/01/25 04:07:37;;;;;;;47.90;30.23;;;0.50;99.90;;;;;;5049252;28;20079;-63
2023/01/25 04:10:04;;;;;;;47.90;30.17;;;0.50;99.90;;;;;;5046221;28;20064;-60
2023/01/25 04:12:30;;;;;;;44.95;28.27;;;0.50;99.90;;;;;;5046561;28;20115;-61
2023/01/25 04:14:56;;;;;;;49.72;30.80;;;0.50;99.90;;;;;;5048569;28;20102;-61
2023/01/25 04:17:22;;;;;;;49.35;30.00;;;0.50;99.90;;;;;;5046047;28;20068;-63
2023/01/25 04:19:48;;;;;;;45.55;28.77;;;0.50;99.90;;;;;;5049523;28;20151;-63
2023/01/25 04:22:15;;;;;;;48.65;30.08;;;0.40;99.90;;;;;;5047614;28;20053;-61
2023/01/25 04:24:41;;;;;;;48.85;29.05;;;0.40;99.90;;;;;;5047956;28;20055;-63
2023/01/25 04:27:07;;;;;;;45.58;27.60;;;0.40;99.90;;;;;;5048075;28;20056;-63
2023/01/25 04:29:33;;;;;;;49.65;28.85;;;0.40;99.90;;;;;;5045675;28;20041;-63
2023/01/25 04:31:59;;;;;;;49.38;29.10;;;0.80;99.90;;;;;;5032726;28;20060;-62
2023/01/25 04:34:25;;;;;;;47.97;28.35;;;0.40;99.90;;;;;;5041847;28;20052;-63
2023/01/25 04:36:51;;;;;;;45.17;28.92;;;0.30;99.90;;;;;;5047347;28;20055;-62
2023/01/25 04:39:17;;;;;;;43.80;28.27;;;0.30;99.90;;;;;;5046595;28;20098;-62
2023/01/25 04:41:42;;;;;;;44.65;28.10;;;0.70;99.90;;;;;;5049079;28;20047;-63
2023/01/25 04:44:08;;;;;;;45.30;28.90;;;0.20;99.90;;;;;;5044700;28;20041;-65
2023/01/25 04:46:34;;;;;;;45.20;28.13;;;0.20;99.90;;;;;;5048848;28;20167;-62
2023/01/25 04:48:59;;;;;;;46.88;28.95;;;0.20;99.90;;;;;;5046231;28;20041;-62
2023/01/25 04:51:25;;;;;;;39.35;22.58;;;0.30;99.90;;;;;;5047425;28;20080;-63
2023/01/25 04:53:51;;;;;;;42.65;26.92;;;0.40;99.90;;;;;;5048139;28;20048;-63
2023/01/25 04:56:16;;;;;;;39.92;25.73;;;0.20;99.90;;;;;;5046399;28;20052;-63
2023/01/25 04:58:42;;;;;;;45.28;27.02;;;0.20;99.90;;;;;;5047244;28;20623;-62
2023/01/25 05:01:08;;;;;;;44.17;26.45;;;0.10;99.90;;;;;;5047609;28;20037;-62
2023/01/25 05:03:33;;;;;;;45.45;27.00;;;0.10;99.90;;;;;;5048108;28;20064;-62
2023/01/25 05:05:59;;;;;;;44.65;27.98;;;-0.80;99.90;;;;;;5047392;28;20044;-63
2023/01/25 05:08:25;;;;;;;43.15;27.35;;;0.10;99.90;;;;;;5046487;28;20068;-63
2023/01/25 05:10:51;;;;;;;48.42;29.00;;;0.10;99.90;;;;;;5047241;28;20117;-62
2023/01/25 05:13:17;;;;;;;45.20;28.05;;;0.10;99.90;;;;;;5047158;28;20078;-62
2023/01/25 05:15:42;;;;;;;45.10;27.95;;;0.10;99.90;;;;;;5049440;28;20037;-62
2023/01/25 05:18:08;;;;;;;46.78;28.40;;;0.10;99.90;;;;;;5047580;28;20041;-63
2023/01/25 05:20:34;;;;;;;46.83;27.35;;;0.10;99.90;;;;;;5048338;28;20049;-62
2023/01/25 05:23:00;;;;;;;46.70;28.35;;;0.10;99.90;;;;;;5048575;28;20041;-63
2023/01/25 05:28:10;;;;;;;44.17;27.17;;;0.10;99.90;;;;;;5048486;28;20041;-62
2023/01/25 05:30:35;;;;;;;45.40;27.70;;;0.20;99.90;;;;;;5046533;28;20048;-63
2023/01/25 05:33:01;;;;;;;44.95;28.13;;;0.20;99.90;;;;;;5046320;28;20063;-63
2023/01/25 05:35:27;;;;;;;44.28;27.75;;;0.20;99.90;;;;;;5045218;28;20049;-63
2023/01/25 05:37:59;;;;;;;43.60;27.20;;;0.20;99.90;;;;;;5045825;28;20071;-63
2023/01/25 05:40:25;;;;;;;45.85;27.88;;;0.20;99.90;;;;;;5047157;28;20100;-62
2023/01/25 05:43:01;;;;;;;45.58;28.25;;;0.20;99.90;;;;;;5047142;28;20574;-62
2023/01/25 05:45:28;;;;;;;49.35;28.38;;;0.20;99.90;;;;;;5048967;28;20072;-63
2023/01/25 05:47:56;;;;;;;48.30;29.70;;;0.20;99.90;;;;;;5047706;28;20067;-63
2023/01/25 05:50:22;;;;;;;47.20;29.25;;;0.30;99.90;;;;;;5049679;28;20051;-63
2023/01/25 05:52:49;;;;;;;48.63;29.35;;;0.30;99.90;;;;;;5044366;28;20641;-62
2023/01/25 05:55:15;;;;;;;48.63;28.40;;;0.30;99.90;;;;;;5048072;28;20053;-62
2023/01/25 05:57:41;;;;;;;46.88;27.88;;;0.30;99.90;;;;;;5046178;28;20096;-62
2023/01/25 06:00:08;;;;;;;49.92;30.42;;;0.30;99.90;;;;;;5046772;28;20049;-63
2023/01/25 06:02:33;;;;;;;47.33;29.20;;;0.20;99.90;;;;;;5051779;28;20044;-63
2023/01/25 06:04:59;;;;;;;49.30;30.33;;;0.40;99.90;;;;;;5051941;28;20053;-63
2023/01/25 06:07:25;;;;;;;47.25;29.67;;;0.20;99.90;;;;;;5051992;28;20132;-63
2023/01/25 06:09:50;;;;;;;47.88;29.05;;;0.20;99.90;;;;;;5050149;28;20511;-63
2023/01/25 06:12:20;;;;;;;47.88;29.90;;;0.20;99.90;;;;;;5050707;28;20136;-63
2023/01/25 06:14:46;;;;;;;45.72;28.65;;;0.20;99.90;;;;;;5052383;28;20047;-63
2023/01/25 06:17:12;;;;;;;49.15;29.30;;;0.20;99.90;;;;;;5050894;28;20128;-62
2023/01/25 06:19:38;;;;;;;50.83;29.00;;;0.50;99.90;;;;;;5050353;28;20044;-63
2023/01/25 06:22:04;;;;;;;45.60;28.27;;;0.20;99.90;;;;;;5051736;28;20060;-62
2023/01/25 06:24:30;;;;;;;51.00;30.10;;;2.20;99.90;;;;;;5052864;28;20048;-63
2023/01/25 06:26:55;;;;;;;50.60;28.13;;;0.20;99.90;;;;;;5050786;28;20416;-63
2023/01/25 06:29:21;;;;;;;51.00;30.08;;;0.20;99.90;;;;;;5049027;28;20049;-63
2023/01/25 06:31:47;;;;;;;46.28;28.33;;;0.20;99.90;;;;;;5050629;28;20064;-63
2023/01/25 06:34:12;;;;;;;45.75;28.08;;;0.10;99.90;;;;;;5031758;28;20639;-63
2023/01/25 06:36:38;;;;;;;43.45;26.45;;;0.10;99.90;;;;;;5051439;28;20075;-62
2023/01/25 06:39:04;;;;;;;47.17;28.65;;;0.10;99.90;;;;;;5045477;28;20045;-63
2023/01/25 06:41:30;;;;;;;48.50;28.67;;;0.10;99.90;;;;;;5051509;28;20229;-62
2023/01/25 06:43:56;;;;;;;45.60;27.55;;;0.10;99.90;;;;;;5048062;28;20044;-62
2023/01/25 06:46:21;;;;;;;48.08;27.83;;;0.20;99.90;;;;;;5048527;28;20060;-63
2023/01/25 06:48:47;;;;;;;45.17;26.63;;;0.10;99.90;;;;;;5027554;28;20053;-62
2023/01/25 06:51:14;;;;;;;43.17;24.38;;;0.00;99.90;;;;;;5048805;28;20072;-62
2023/01/25 06:53:42;;;;;;;44.08;26.95;;;0.30;99.90;;;;;;5048561;28;20040;-62
2023/01/25 06:56:10;;;;;;;45.17;27.38;;;0.10;99.90;;;;;;5050263;28;20580;-62
2023/01/25 06:58:36;;;;;;;44.22;27.05;;;0.10;99.90;;;;;;5047113;28;20560;-61
2023/01/25 07:01:26;;;;;;;42.03;26.08;;;0.00;99.90;;;;;;5047067;28;20060;-62
2023/01/25 07:03:54;;;;;;;42.15;25.83;;;0.10;99.90;;;;;;5048451;28;20057;-61
2023/01/25 07:06:20;;;;;;;45.53;27.08;;;1.50;99.90;;;;;;5050944;28;20048;-62
2023/01/25 07:08:46;;;;;;;50.20;26.83;;;0.00;99.90;;;;;;5046175;28;20045;-63
2023/01/25 07:11:13;;;;;;;41.13;23.80;;;0.00;99.90;;;;;;5029017;28;20125;-61
2023/01/25 07:13:41;;;;;;;48.78;26.70;;;0.00;99.90;;;;;;5047671;28;20033;-61
2023/01/25 07:16:17;;;;;;;45.00;26.30;;;0.00;99.90;;;;;;5051469;28;20072;-62
2023/01/25 07:18:43;;;;;;;46.60;27.60;;;0.00;99.90;;;;;;5050369;28;20068;-62
2023/01/25 07:21:14;;;;;;;44.70;27.83;;;0.00;99.90;;;;;;5047878;28;20044;-63
2023/01/25 07:23:40;;;;;;;47.13;27.60;;;0.00;99.90;;;;;;5038417;28;20445;-61
2023/01/25 07:26:20;;;;;;;47.50;27.40;;;-0.10;99.90;;;;;;5043726;28;20110;-61
2023/01/25 07:28:47;;;;;;;44.95;27.38;;;-0.10;99.90;;;;;;5046650;28;20041;-62
2023/01/25 07:31:14;;;;;;;42.75;25.60;;;0.00;99.90;;;;;;5046989;28;20136;-62
2023/01/25 07:33:40;;;;;;;46.22;27.10;;;0.00;99.90;;;;;;5050451;28;20053;-62
2023/01/25 07:36:08;;;;;;;48.30;27.55;;;0.00;99.90;;;;;;5047811;28;20048;-63
2023/01/25 07:38:35;;;;;;;44.97;27.27;;;0.00;99.90;;;;;;5047525;28;20044;-62
2023/01/25 07:41:01;;;;;;;48.75;27.88;;;0.00;99.90;;;;;;5051067;28;20059;-63
2023/01/25 07:43:27;;;;;;;45.88;27.75;;;0.00;99.90;;;;;;5048806;28;20087;-63
2023/01/25 07:46:02;;;;;;;43.17;26.10;;;0.00;99.90;;;;;;5044261;28;20049;-63
2023/01/25 07:48:28;;;;;;;42.03;26.15;;;0.00;99.90;;;;;;5046776;28;20064;-62
2023/01/25 07:51:10;;;;;;;44.28;27.17;;;0.00;99.90;;;;;;5044385;28;20449;-62
2023/01/25 07:53:41;;;;;;;41.53;26.08;;;0.00;99.90;;;;;;5044283;28;20079;-62
2023/01/25 07:56:08;;;;;;;38.40;23.80;;;-0.10;99.90;;;;;;5046365;28;20049;-61
2023/01/25 07:58:34;;;;;;;41.63;24.50;;;-0.10;99.90;;;;;;5050076;28;20481;-62
2023/01/25 08:01:14;;;;;;;41.33;24.67;;;-0.10;99.90;;;;;;5045201;28;20033;-61
2023/01/25 08:03:40;;;;;;;40.63;24.17;;;-0.10;99.90;;;;;;5048305;28;20045;-62
2023/01/25 08:06:07;;;;;;;37.88;22.90;;;0.00;99.90;;;;;;5045035;28;20060;-61
2023/01/25 08:08:36;;;;;;;39.75;24.80;;;0.00;99.90;;;;;;5040856;28;20052;-62
2023/01/25 08:11:17;;;;;;;41.88;24.58;;;-0.10;99.90;;;;;;5048640;28;20132;-62
2023/01/25 08:13:48;;;;;;;41.03;24.55;;;-0.20;99.90;;;;;;5044157;28;20144;-62
2023/01/25 08:16:16;;;;;;;42.20;24.48;;;-0.20;99.90;;;;;;5038151;28;20060;-62
2023/01/25 08:18:42;;;;;;;40.83;24.58;;;-0.20;99.90;;;;;;5048589;28;20045;-62
2023/01/25 08:21:08;;;;;;;38.97;24.38;;;-0.20;99.90;;;;;;5048234;28;20105;-63
2023/01/25 08:23:34;;;;;;;40.10;23.83;;;-0.20;99.90;;;;;;5048916;28;20037;-64
2023/01/25 08:26:01;;;;;;;37.85;22.85;;;-0.20;99.90;;;;;;5046965;28;20049;-62
2023/01/25 08:28:27;;;;;;;36.05;22.75;;;-0.10;99.90;;;;;;5014596;28;20052;-62
2023/01/25 08:30:53;;;;;;;39.85;23.08;;;-0.10;99.90;;;;;;5046861;28;20105;-62
2023/01/25 08:33:19;;;;;;;39.03;24.08;;;-0.10;99.90;;;;;;5049181;28;20052;-62
2023/01/25 08:35:55;;;;;;;43.10;24.50;;;-0.10;99.90;;;;;;5047341;28;20114;-62
2023/01/25 08:38:20;;;;;;;;;;;-0.10;99.90;;;;;;5045835;28;20131;-62
2023/01/25 08:40:46;;;;;;;42.53;25.47;;;1.30;99.90;;;;;;5044674;28;20443;-62
2023/01/25 08:43:12;;;;;;;39.53;23.38;;;-0.10;99.90;;;;;;5028997;28;20037;-62
2023/01/25 08:45:37;;;;;;;44.40;24.85;;;-0.10;99.90;;;;;;5045995;28;20040;-62
2023/01/25 08:48:03;;;;;;;43.70;24.23;;;-0.20;99.90;;;;;;5042540;28;20542;-62
2023/01/25 08:50:29;;;;;;;40.85;24.65;;;-0.20;99.90;;;;;;5046409;28;20157;-62
2023/01/25 08:52:54;;;;;;;36.80;21.27;;;-0.20;99.90;;;;;;5046247;28;20103;-62
2023/01/25 08:55:20;;;;;;;42.22;24.52;;;-0.20;99.90;;;;;;5043460;28;20376;-63
2023/01/25 08:57:46;;;;;;;43.83;25.02;;;-0.10;99.90;;;;;;5045174;28;20045;-62
2023/01/25 09:00:13;;;;;;;45.47;25.60;;;-0.10;99.90;;;;;;5044119;28;20045;-62
2023/01/25 09:02:38;;;;;;;43.08;25.15;;;-0.20;99.90;;;;;;5046957;28;20049;-61
2023/01/25 09:05:04;;;;;;;41.20;24.08;;;0.60;99.90;;;;;;5041057;28;20047;-62
2023/01/25 09:07:31;;;;;;;43.15;25.63;;;-0.10;99.90;;;;;;5034283;28;20074;-62
2023/01/25 09:09:57;;;;;;;43.10;25.23;;;-0.10;99.90;;;;;;5043175;28;20053;-61
2023/01/25 09:12:23;;;;;;;41.35;23.65;;;-0.50;99.90;;;;;;5045588;28;20071;-62
2023/01/25 09:14:48;;;;;;;42.40;25.85;;;0.00;99.90;;;;;;5043649;28;20762;-62
2023/01/25 09:17:14;;;;;;;42.53;26.05;;;-0.10;99.90;;;;;;5044438;28;20045;-62
2023/01/25 09:19:41;;;;;;;44.60;26.08;;;-0.10;99.90;;;;;;5024681;28;20092;-61
2023/01/25 09:22:07;;;;;;;44.08;24.17;;;-0.10;99.90;;;;;;5044703;28;20401;-62
2023/01/25 09:24:33;;;;;;;43.28;25.65;;;-0.10;99.90;;;;;;5044045;28;20046;-62
2023/01/25 09:26:59;;;;;;;43.00;24.48;;;-0.10;99.90;;;;;;5043784;28;20591;-62
2023/01/25 09:29:25;;;;;;;45.50;26.08;;;-0.20;99.90;;;;;;5042528;28;20072;-62
2023/01/25 09:31:51;;;;;;;44.67;25.08;;;-0.20;99.90;;;;;;5043710;28;20060;-61
2023/01/25 09:34:16;;;;;;;47.17;27.30;;;-0.20;99.90;;;;;;5043518;28;20057;-62
2023/01/25 09:36:42;;;;;;;46.10;25.83;;;-0.20;99.90;;;;;;5029123;28;20080;-61
2023/01/25 09:39:11;;;;;;;47.53;24.48;;;-0.30;99.90;;;;;;5045330;28;20562;-62
2023/01/25 09:42:01;;;;;;;47.15;25.55;;;-0.30;99.90;;;;;;5047913;28;20536;-62
2023/01/25 09:44:51;;;;;;;46.30;26.23;;;-0.30;99.90;;;;;;5048093;28;20107;-63
2023/01/25 09:47:48;;;;;;;47.75;26.08;;;-0.30;99.90;;;;;;5043215;28;20057;-61
2023/01/25 09:50:31;;;;;;;46.00;25.63;;;-0.30;99.90;;;;;;5048190;28;20059;-62
2023/01/25 09:53:06;;;;;;;47.80;25.45;;;-0.20;99.90;;;;;;5048724;28;20083;-62
2023/01/25 09:55:32;;;;;;;52.88;28.48;;;-0.20;99.90;;;;;;5045675;28;20083;-62
2023/01/25 09:58:01;;;;;;;51.03;26.65;;;-0.20;99.90;;;;;;5049220;28;20045;-62
2023/01/25 10:00:34;;;;;;;47.35;26.00;;;-0.10;99.90;;;;;;5044577;28;20076;-63
2023/01/25 10:03:18;;;;;;;50.38;27.17;;;-0.10;99.90;;;;;;5046420;28;20424;-61
2023/01/25 10:05:46;;;;;;;52.05;27.85;;;-0.10;99.90;;;;;;5045348;28;20057;-61
2023/01/25 10:08:25;;;;;;;48.03;26.77;;;-0.10;99.90;;;;;;5049034;28;20053;-62
2023/01/25 10:11:12;;;;;;;52.88;27.85;;;-0.10;99.90;;;;;;5052164;28;20064;-62
2023/01/25 10:13:37;;;;;;;56.30;28.38;;;-0.10;99.90;;;;;;5050424;28;20045;-63
2023/01/25 10:16:10;;;;;;;48.00;25.45;;;0.00;99.90;;;;;;5050360;28;20048;-62
2023/01/25 10:18:48;;;;;;;50.17;27.52;;;0.00;99.90;;;;;;5051280;28;20059;-62
2023/01/25 10:22:02;;;;;;;49.80;26.23;;;-0.10;99.90;;;;;;5050546;28;20059;-62
2023/01/25 10:24:56;;;;;;;49.10;26.10;;;-0.10;99.90;;;;;;5051468;28;20060;-62
2023/01/25 10:27:32;;;;;;;46.97;23.73;;;-0.10;99.90;;;;;;5051650;28;20117;-62
2023/01/25 10:30:06;;;;;;;47.75;24.67;;;-0.10;99.90;;;;;;5050441;28;20053;-62
2023/01/25 10:32:33;;;;;;;46.05;25.77;;;-0.10;99.90;;;;;;5051082;28;20234;-61
2023/01/25 10:35:16;;;;;;;46.97;24.05;;;-0.10;99.90;;;;;;5050274;28;20055;-62
2023/01/25 10:37:42;;;;;;;46.45;24.92;;;-0.10;99.90;;;;;;5051545;28;20544;-61
2023/01/25 10:40:22;;;;;;;47.63;24.23;;;-0.10;99.90;;;;;;5050236;28;20108;-61
2023/01/25 10:42:56;;;;;;;43.78;23.25;;;-0.10;99.90;;;;;;5050300;28;20558;-61
2023/01/25 10:45:22;;;;;;;45.15;24.20;;;-0.10;99.90;;;;;;5050756;28;20102;-62
2023/01/25 10:47:59;;;;;;;43.58;24.30;;;-0.20;99.90;;;;;;5048942;28;20041;-63
2023/01/25 10:50:46;;;;;;;45.65;24.45;;;-0.30;99.90;;;;;;5051516;28;20087;-63
2023/01/25 10:53:30;;;;;;;47.80;24.52;;;-0.30;99.90;;;;;;5049396;28;20086;-63
2023/01/25 10:56:08;;;;;;;46.55;25.45;;;-0.20;99.90;;;;;;5050285;28;20068;-62
2023/01/25 10:58:37;;;;;;;44.00;23.67;;;-0.20;99.90;;;;;;5049611;28;20840;-62
2023/01/25 11:01:06;;;;;;;48.00;25.73;;;-0.20;99.90;;;;;;5048164;28;20057;-63
2023/01/25 11:03:45;;;;;;;47.17;23.45;;;-0.20;99.90;;;;;;5050694;28;20544;-62
2023/01/25 11:06:10;;;;;;;48.95;24.55;;;0.20;99.90;;;;;;5049098;28;20068;-63
2023/01/25 11:08:38;;;;;;;44.47;24.40;;;-0.10;99.90;;;;;;5049297;28;20056;-62
2023/01/25 11:11:25;;;;;;;54.58;25.25;;;-0.10;99.90;;;;;;5046573;28;20044;-62
2023/01/25 11:13:55;;;;;;;45.50;22.73;;;-0.10;99.90;;;;;;5041362;28;20068;-62
2023/01/25 11:16:34;;;;;;;47.55;24.50;;;-0.10;99.90;;;;;;5044962;28;20041;-63
2023/01/25 11:19:01;;;;;;;48.03;24.55;;;-0.10;99.90;;;;;;5048182;28;20053;-61
2023/01/25 11:21:33;;;;;;;47.00;24.02;;;-0.10;99.90;;;;;;5047887;28;20082;-62
2023/01/25 11:24:08;;;;;;;45.38;24.10;;;-0.10;99.90;;;;;;5048773;28;20051;-61
2023/01/25 11:26:39;;;;;;;49.85;25.63;;;-0.10;99.90;;;;;;5049709;28;20077;-60
2023/01/25 11:29:09;;;;;;;52.15;24.45;;;-0.10;99.90;;;;;;5049187;28;20413;-61
2023/01/25 11:31:36;;;;;;;47.58;24.45;;;-0.10;99.90;;;;;;5044745;28;20081;-62
2023/01/25 11:34:01;;;;;;;49.38;24.45;;;-0.10;99.90;;;;;;5046082;28;20059;-63
2023/01/25 11:36:36;;;;;;;49.95;24.75;;;-0.10;99.90;;;;;;5048584;28;20045;-61
2023/01/25 11:39:34;;;;;;;48.47;23.90;;;-0.10;99.90;;;;;;5045734;28;20088;-60
2023/01/25 11:42:18;;;;;;;51.72;26.42;;;-0.10;99.90;;;;;;5048788;28;20056;-61
2023/01/25 11:45:01;;;;;;;52.45;25.42;;;-0.20;99.90;;;;;;5046062;28;20037;-61
2023/01/25 11:47:48;;;;;;;54.38;25.85;;;-0.20;99.90;;;;;;5044315;28;20063;-61
2023/01/25 11:50:35;;;;;;;52.00;25.98;;;-0.20;99.90;;;;;;5048135;28;20045;-62
2023/01/25 11:53:18;;;;;;;47.83;22.73;;;-0.20;99.90;;;;;;5047135;28;20489;-63
2023/01/25 11:55:56;;;;;;;48.15;21.48;;;-0.20;99.90;;;;;;5030880;28;20049;-62
2023/01/25 11:58:43;;;;;;;53.92;25.27;;;-0.20;99.90;;;;;;5048655;28;20183;-62
2023/01/25 12:01:37;;;;;;;48.92;23.77;;;-0.20;99.90;;;;;;5047318;28;20713;-64
2023/01/25 12:04:05;;;;;;;52.83;23.90;;;-0.20;99.90;;;;;;5045722;28;20049;-65
2023/01/25 12:06:46;;;;;;;53.75;25.50;;;-0.20;99.90;;;;;;5046904;28;20044;-63
2023/01/25 12:09:18;;;;;;;54.95;24.75;;;-0.20;99.90;;;;;;5040091;28;20041;-62
2023/01/25 12:12:31;;;;;;;52.45;24.77;;;-0.20;99.90;;;;;;5042357;28;20044;-62
2023/01/25 12:15:32;;;;;;;51.40;24.02;;;-0.20;99.90;;;;;;5045135;28;20312;-61
2023/01/25 12:18:32;;;;;;;55.05;24.13;;;-0.20;99.90;;;;;;5008935;28;20050;-62
2023/01/25 12:21:03;;;;;;;53.22;23.80;;;-0.20;99.90;;;;;;5045656;28;20045;-63
2023/01/25 12:23:42;;;;;;;53.35;24.83;;;-0.30;99.90;;;;;;5045082;28;20338;-62
2023/01/25 12:26:36;;;;;;;52.03;25.70;;;-0.30;99.90;;;;;;5045851;28;20036;-61
2023/01/25 12:29:25;;;;;;;56.20;25.77;;;-0.30;99.90;;;;;;5048969;28;20053;-60
2023/01/25 12:32:08;;;;;;;52.00;25.73;;;-0.30;99.90;;;;;;5047236;28;20048;-61
2023/01/25 12:34:43;;;;;;;56.40;25.73;;;-0.30;99.90;;;;;;5047855;28;20064;-62
2023/01/25 12:37:23;;;;;;;54.65;24.10;;;-0.30;99.90;;;;;;5048687;28;20642;-62
2023/01/25 12:39:57;;;;;;;49.15;24.48;;;-0.30;99.90;;;;;;5043206;28;20115;-62
2023/01/25 12:42:54;;;;;;;52.55;24.17;;;-0.30;99.90;;;;;;5045716;28;20044;-62
2023/01/25 12:45:25;;;;;;;48.88;21.45;;;-0.30;99.90;;;;;;5034544;28;20250;-62
2023/01/25 12:48:00;;;;;;;47.40;23.63;;;-0.20;99.90;;;;;;5038821;28;20051;-62
2023/01/25 12:50:45;;;;;;;39.05;17.50;;;-0.30;99.90;;;;;;5043157;28;20045;-62
2023/01/25 12:53:18;;;;;;;45.95;22.48;;;-0.30;99.90;;;;;;5042407;28;20029;-62